sensor_id;sensor_type;location;lat;lon;timestamp;temperature;humidity
913;DHT22;443;51.448;7.028;2023-11-21T00:00:21;14.10;86.00
913;DHT22;443;51.448;7.028;2023-11-21T00:02:49;14.20;86.30
913;DHT22;443;51.448;7.028;2023-11-21T00:05:16;14.30;86.10
913;DHT22;443;51.448;7.028;2023-11-21T00:07:43;14.30;86.00
913;DHT22;443;51.448;7.028;2023-11-21T00:10:11;14.30;86.00
913;DHT22;443;51.448;7.028;2023-11-21T00:12:39;14.30;86.00
913;DHT22;443;51.448;7.028;2023-11-21T00:15:08;14.30;85.90
913;DHT22;443;51.448;7.028;2023-11-21T00:17:36;14.30;85.70
913;DHT22;443;51.448;7.028;2023-11-21T00:20:06;14.20;85.70
913;DHT22;443;51.448;7.028;2023-11-21T00:22:33;14.30;85.90
913;DHT22;443;51.448;7.028;2023-11-21T00:25:00;14.40;85.80
913;DHT22;443;51.448;7.028;2023-11-21T00:27:29;14.30;85.70
913;DHT22;443;51.448;7.028;2023-11-21T00:29:55;14.30;85.60
913;DHT22;443;51.448;7.028;2023-11-21T00:32:22;14.30;85.70
913;DHT22;443;51.448;7.028;2023-11-21T00:34:49;14.40;85.80
913;DHT22;443;51.448;7.028;2023-11-21T00:37:17;14.40;85.60
913;DHT22;443;51.448;7.028;2023-11-21T00:39:44;14.40;85.50
913;DHT22;443;51.448;7.028;2023-11-21T00:42:11;14.30;85.50
913;DHT22;443;51.448;7.028;2023-11-21T00:44:38;14.40;85.60
913;DHT22;443;51.448;7.028;2023-11-21T00:47:05;14.40;85.50
913;DHT22;443;51.448;7.028;2023-11-21T00:49:31;14.40;85.50
913;DHT22;443;51.448;7.028;2023-11-21T00:51:58;14.40;85.50
913;DHT22;443;51.448;7.028;2023-11-21T00:54:27;14.40;85.70
913;DHT22;443;51.448;7.028;2023-11-21T00:56:54;14.30;85.40
913;DHT22;443;51.448;7.028;2023-11-21T00:59:21;14.30;85.60
913;DHT22;443;51.448;7.028;2023-11-21T01:01:48;14.40;85.60
913;DHT22;443;51.448;7.028;2023-11-21T01:04:15;14.40;85.40
913;DHT22;443;51.448;7.028;2023-11-21T01:06:42;14.50;85.40
913;DHT22;443;51.448;7.028;2023-11-21T01:09:08;14.50;85.30
913;DHT22;443;51.448;7.028;2023-11-21T01:11:37;14.50;85.00
913;DHT22;443;51.448;7.028;2023-11-21T01:14:04;14.50;85.00
913;DHT22;443;51.448;7.028;2023-11-21T01:16:32;14.50;85.20
913;DHT22;443;51.448;7.028;2023-11-21T01:18:59;14.50;85.10
913;DHT22;443;51.448;7.028;2023-11-21T01:21:26;14.50;85.20
913;DHT22;443;51.448;7.028;2023-11-21T01:23:53;14.50;85.10
913;DHT22;443;51.448;7.028;2023-11-21T01:26:20;14.50;85.00
913;DHT22;443;51.448;7.028;2023-11-21T01:28:48;14.50;84.90
913;DHT22;443;51.448;7.028;2023-11-21T01:31:15;14.60;85.00
913;DHT22;443;51.448;7.028;2023-11-21T01:33:42;14.60;85.00
913;DHT22;443;51.448;7.028;2023-11-21T01:36:10;14.60;85.00
913;DHT22;443;51.448;7.028;2023-11-21T01:38:36;14.50;85.00
913;DHT22;443;51.448;7.028;2023-11-21T01:41:04;14.60;85.00
913;DHT22;443;51.448;7.028;2023-11-21T01:43:31;14.50;85.70
913;DHT22;443;51.448;7.028;2023-11-21T01:46:00;14.50;84.90
913;DHT22;443;51.448;7.028;2023-11-21T01:48:27;14.60;84.90
913;DHT22;443;51.448;7.028;2023-11-21T01:50:55;14.60;84.90
913;DHT22;443;51.448;7.028;2023-11-21T01:53:23;14.50;84.80
913;DHT22;443;51.448;7.028;2023-11-21T01:55:51;14.50;84.90
913;DHT22;443;51.448;7.028;2023-11-21T01:58:19;14.50;85.00
913;DHT22;443;51.448;7.028;2023-11-21T02:00:47;14.50;84.90
913;DHT22;443;51.448;7.028;2023-11-21T02:03:17;14.50;84.90
913;DHT22;443;51.448;7.028;2023-11-21T02:05:44;14.50;85.00
913;DHT22;443;51.448;7.028;2023-11-21T02:08:10;14.50;85.00
913;DHT22;443;51.448;7.028;2023-11-21T02:10:37;14.60;85.10
913;DHT22;443;51.448;7.028;2023-11-21T02:13:04;14.50;85.00
913;DHT22;443;51.448;7.028;2023-11-21T02:15:31;14.50;85.10
913;DHT22;443;51.448;7.028;2023-11-21T02:17:58;14.50;85.00
913;DHT22;443;51.448;7.028;2023-11-21T02:20:27;14.50;85.10
913;DHT22;443;51.448;7.028;2023-11-21T02:22:57;14.50;85.00
913;DHT22;443;51.448;7.028;2023-11-21T02:25:25;14.50;84.90
913;DHT22;443;51.448;7.028;2023-11-21T02:27:51;14.50;84.80
913;DHT22;443;51.448;7.028;2023-11-21T02:30:20;14.50;84.80
913;DHT22;443;51.448;7.028;2023-11-21T02:32:47;14.60;84.80
913;DHT22;443;51.448;7.028;2023-11-21T02:35:14;14.70;84.70
913;DHT22;443;51.448;7.028;2023-11-21T02:37:41;14.70;84.50
913;DHT22;443;51.448;7.028;2023-11-21T02:40:10;14.60;84.50
913;DHT22;443;51.448;7.028;2023-11-21T02:42:39;14.70;84.50
913;DHT22;443;51.448;7.028;2023-11-21T02:45:06;14.70;84.40
913;DHT22;443;51.448;7.028;2023-11-21T02:47:33;14.60;84.50
913;DHT22;443;51.448;7.028;2023-11-21T02:50:00;14.60;84.40
913;DHT22;443;51.448;7.028;2023-11-21T02:52:27;14.70;84.40
913;DHT22;443;51.448;7.028;2023-11-21T02:54:54;14.70;84.20
913;DHT22;443;51.448;7.028;2023-11-21T02:57:22;14.70;84.30
913;DHT22;443;51.448;7.028;2023-11-21T02:59:49;14.60;84.30
913;DHT22;443;51.448;7.028;2023-11-21T03:02:16;14.70;84.40
913;DHT22;443;51.448;7.028;2023-11-21T03:04:43;14.70;84.30
913;DHT22;443;51.448;7.028;2023-11-21T03:07:10;14.70;84.20
913;DHT22;443;51.448;7.028;2023-11-21T03:09:36;14.70;84.10
913;DHT22;443;51.448;7.028;2023-11-21T03:12:04;14.70;84.10
913;DHT22;443;51.448;7.028;2023-11-21T03:14:31;14.70;83.80
913;DHT22;443;51.448;7.028;2023-11-21T03:16:58;14.70;84.20
913;DHT22;443;51.448;7.028;2023-11-21T03:19:25;14.60;84.20
913;DHT22;443;51.448;7.028;2023-11-21T03:21:52;14.60;84.40
913;DHT22;443;51.448;7.028;2023-11-21T03:24:19;14.60;84.20
913;DHT22;443;51.448;7.028;2023-11-21T03:26:48;14.70;84.20
913;DHT22;443;51.448;7.028;2023-11-21T03:29:14;14.70;84.00
913;DHT22;443;51.448;7.028;2023-11-21T03:31:42;14.70;84.10
913;DHT22;443;51.448;7.028;2023-11-21T03:34:14;14.70;84.10
913;DHT22;443;51.448;7.028;2023-11-21T03:36:41;14.70;84.20
913;DHT22;443;51.448;7.028;2023-11-21T03:39:08;14.70;84.10
913;DHT22;443;51.448;7.028;2023-11-21T03:41:35;14.70;84.10
913;DHT22;443;51.448;7.028;2023-11-21T03:44:01;14.60;84.00
913;DHT22;443;51.448;7.028;2023-11-21T03:46:28;14.60;84.30
913;DHT22;443;51.448;7.028;2023-11-21T03:48:56;14.60;84.40
913;DHT22;443;51.448;7.028;2023-11-21T03:51:23;14.60;84.50
913;DHT22;443;51.448;7.028;2023-11-21T03:53:50;14.60;84.10
913;DHT22;443;51.448;7.028;2023-11-21T03:56:17;14.60;84.40
913;DHT22;443;51.448;7.028;2023-11-21T03:58:43;14.70;84.30
913;DHT22;443;51.448;7.028;2023-11-21T04:01:10;14.60;84.20
913;DHT22;443;51.448;7.028;2023-11-21T04:03:37;14.60;84.30
913;DHT22;443;51.448;7.028;2023-11-21T04:06:07;14.60;84.40
913;DHT22;443;51.448;7.028;2023-11-21T04:08:35;14.60;84.40
913;DHT22;443;51.448;7.028;2023-11-21T04:11:02;14.60;84.50
913;DHT22;443;51.448;7.028;2023-11-21T04:13:29;14.60;84.40
913;DHT22;443;51.448;7.028;2023-11-21T04:15:56;14.60;84.40
913;DHT22;443;51.448;7.028;2023-11-21T04:18:23;14.50;83.90
913;DHT22;443;51.448;7.028;2023-11-21T04:20:50;14.60;84.30
913;DHT22;443;51.448;7.028;2023-11-21T04:23:18;14.60;84.50
913;DHT22;443;51.448;7.028;2023-11-21T04:25:45;14.70;84.30
913;DHT22;443;51.448;7.028;2023-11-21T04:28:12;14.60;84.10
913;DHT22;443;51.448;7.028;2023-11-21T04:30:38;14.60;84.30
913;DHT22;443;51.448;7.028;2023-11-21T04:33:06;14.60;84.60
913;DHT22;443;51.448;7.028;2023-11-21T04:35:33;14.60;84.60
913;DHT22;443;51.448;7.028;2023-11-21T04:37:59;14.50;84.50
913;DHT22;443;51.448;7.028;2023-11-21T04:40:28;14.50;84.40
913;DHT22;443;51.448;7.028;2023-11-21T04:42:54;14.50;84.40
913;DHT22;443;51.448;7.028;2023-11-21T04:45:22;14.50;84.40
913;DHT22;443;51.448;7.028;2023-11-21T04:47:49;14.50;84.60
913;DHT22;443;51.448;7.028;2023-11-21T04:50:16;14.50;84.70
913;DHT22;443;51.448;7.028;2023-11-21T04:52:43;14.50;84.60
913;DHT22;443;51.448;7.028;2023-11-21T04:55:10;14.50;84.70
913;DHT22;443;51.448;7.028;2023-11-21T04:57:38;14.50;84.60
913;DHT22;443;51.448;7.028;2023-11-21T05:00:08;14.50;84.50
913;DHT22;443;51.448;7.028;2023-11-21T05:02:35;14.50;84.70
913;DHT22;443;51.448;7.028;2023-11-21T05:05:04;14.40;84.30
913;DHT22;443;51.448;7.028;2023-11-21T05:07:31;14.30;83.60
913;DHT22;443;51.448;7.028;2023-11-21T05:10:00;14.20;83.80
913;DHT22;443;51.448;7.028;2023-11-21T05:12:31;14.10;84.10
913;DHT22;443;51.448;7.028;2023-11-21T05:15:01;14.10;84.40
913;DHT22;443;51.448;7.028;2023-11-21T05:17:28;14.10;84.40
913;DHT22;443;51.448;7.028;2023-11-21T05:19:55;14.00;84.50
913;DHT22;443;51.448;7.028;2023-11-21T05:22:22;14.00;84.60
913;DHT22;443;51.448;7.028;2023-11-21T05:24:48;14.10;84.80
913;DHT22;443;51.448;7.028;2023-11-21T05:27:16;14.00;84.50
913;DHT22;443;51.448;7.028;2023-11-21T05:29:42;14.00;84.80
913;DHT22;443;51.448;7.028;2023-11-21T05:32:10;14.00;84.80
913;DHT22;443;51.448;7.028;2023-11-21T05:34:37;14.00;85.20
913;DHT22;443;51.448;7.028;2023-11-21T05:37:04;14.00;85.10
913;DHT22;443;51.448;7.028;2023-11-21T05:39:31;14.00;85.30
913;DHT22;443;51.448;7.028;2023-11-21T05:41:58;14.10;85.20
913;DHT22;443;51.448;7.028;2023-11-21T05:44:25;14.10;85.80
913;DHT22;443;51.448;7.028;2023-11-21T05:46:52;14.20;85.50
913;DHT22;443;51.448;7.028;2023-11-21T05:49:20;14.20;85.40
913;DHT22;443;51.448;7.028;2023-11-21T05:51:48;14.20;85.40
913;DHT22;443;51.448;7.028;2023-11-21T05:54:15;14.20;85.40
913;DHT22;443;51.448;7.028;2023-11-21T05:56:42;14.20;85.20
913;DHT22;443;51.448;7.028;2023-11-21T05:59:09;14.20;85.50
913;DHT22;443;51.448;7.028;2023-11-21T06:01:36;14.20;85.40
913;DHT22;443;51.448;7.028;2023-11-21T06:04:04;14.20;85.10
913;DHT22;443;51.448;7.028;2023-11-21T06:06:32;14.20;85.40
913;DHT22;443;51.448;7.028;2023-11-21T06:08:59;14.30;85.50
913;DHT22;443;51.448;7.028;2023-11-21T06:11:26;14.30;85.40
913;DHT22;443;51.448;7.028;2023-11-21T06:13:53;14.40;85.50
913;DHT22;443;51.448;7.028;2023-11-21T06:16:20;14.40;85.00
913;DHT22;443;51.448;7.028;2023-11-21T06:18:47;14.50;85.40
913;DHT22;443;51.448;7.028;2023-11-21T06:21:13;14.50;85.10
913;DHT22;443;51.448;7.028;2023-11-21T06:23:43;14.50;85.30
913;DHT22;443;51.448;7.028;2023-11-21T06:26:10;14.50;85.10
913;DHT22;443;51.448;7.028;2023-11-21T06:28:38;14.60;85.20
913;DHT22;443;51.448;7.028;2023-11-21T06:31:05;14.40;84.10
913;DHT22;443;51.448;7.028;2023-11-21T06:33:32;14.40;85.20
913;DHT22;443;51.448;7.028;2023-11-21T06:35:59;14.50;85.20
913;DHT22;443;51.448;7.028;2023-11-21T06:38:28;14.50;84.70
913;DHT22;443;51.448;7.028;2023-11-21T06:40:57;14.50;85.10
913;DHT22;443;51.448;7.028;2023-11-21T06:43:27;14.50;85.00
913;DHT22;443;51.448;7.028;2023-11-21T06:45:54;14.50;85.10
913;DHT22;443;51.448;7.028;2023-11-21T06:48:20;14.50;85.20
913;DHT22;443;51.448;7.028;2023-11-21T06:50:47;14.60;84.50
913;DHT22;443;51.448;7.028;2023-11-21T06:53:14;14.50;84.80
913;DHT22;443;51.448;7.028;2023-11-21T06:55:41;14.40;84.50
913;DHT22;443;51.448;7.028;2023-11-21T06:58:09;14.40;85.10
913;DHT22;443;51.448;7.028;2023-11-21T07:00:35;14.50;84.90
913;DHT22;443;51.448;7.028;2023-11-21T07:03:02;14.40;85.10
913;DHT22;443;51.448;7.028;2023-11-21T07:05:30;14.40;84.60
913;DHT22;443;51.448;7.028;2023-11-21T07:07:56;14.40;85.00
913;DHT22;443;51.448;7.028;2023-11-21T07:10:26;14.40;85.00
913;DHT22;443;51.448;7.028;2023-11-21T07:12:52;14.40;85.20
913;DHT22;443;51.448;7.028;2023-11-21T07:15:20;14.40;84.80
913;DHT22;443;51.448;7.028;2023-11-21T07:17:48;14.40;85.20
913;DHT22;443;51.448;7.028;2023-11-21T07:20:14;14.30;84.70
913;DHT22;443;51.448;7.028;2023-11-21T07:22:42;14.30;85.40
913;DHT22;443;51.448;7.028;2023-11-21T07:25:09;14.40;85.00
913;DHT22;443;51.448;7.028;2023-11-21T07:27:36;14.40;85.30
913;DHT22;443;51.448;7.028;2023-11-21T07:30:03;14.40;84.60
913;DHT22;443;51.448;7.028;2023-11-21T07:32:32;14.30;84.30
913;DHT22;443;51.448;7.028;2023-11-21T07:34:59;14.40;84.50
913;DHT22;443;51.448;7.028;2023-11-21T07:37:26;14.40;84.60
913;DHT22;443;51.448;7.028;2023-11-21T07:39:54;14.40;84.70
913;DHT22;443;51.448;7.028;2023-11-21T07:42:22;14.40;84.40
913;DHT22;443;51.448;7.028;2023-11-21T07:44:48;14.40;84.60
913;DHT22;443;51.448;7.028;2023-11-21T07:47:15;14.40;84.70
913;DHT22;443;51.448;7.028;2023-11-21T07:49:43;14.40;84.80
913;DHT22;443;51.448;7.028;2023-11-21T07:52:12;14.30;84.80
913;DHT22;443;51.448;7.028;2023-11-21T07:54:41;14.30;84.80
913;DHT22;443;51.448;7.028;2023-11-21T07:57:08;14.30;84.20
913;DHT22;443;51.448;7.028;2023-11-21T07:59:38;14.30;84.50
913;DHT22;443;51.448;7.028;2023-11-21T08:02:06;14.40;84.90
913;DHT22;443;51.448;7.028;2023-11-21T08:04:32;14.30;84.90
913;DHT22;443;51.448;7.028;2023-11-21T08:07:01;14.30;84.50
913;DHT22;443;51.448;7.028;2023-11-21T08:09:29;14.30;85.00
913;DHT22;443;51.448;7.028;2023-11-21T08:11:56;14.40;85.10
913;DHT22;443;51.448;7.028;2023-11-21T08:14:23;14.30;84.80
913;DHT22;443;51.448;7.028;2023-11-21T08:16:51;14.40;84.80
913;DHT22;443;51.448;7.028;2023-11-21T08:19:17;14.30;85.10
913;DHT22;443;51.448;7.028;2023-11-21T08:21:44;14.40;85.30
913;DHT22;443;51.448;7.028;2023-11-21T08:24:12;14.40;85.00
913;DHT22;443;51.448;7.028;2023-11-21T08:26:39;14.40;84.80
913;DHT22;443;51.448;7.028;2023-11-21T08:29:06;14.40;84.70
913;DHT22;443;51.448;7.028;2023-11-21T08:31:34;14.40;85.00
913;DHT22;443;51.448;7.028;2023-11-21T08:34:00;14.40;84.40
913;DHT22;443;51.448;7.028;2023-11-21T08:36:28;14.40;84.70
913;DHT22;443;51.448;7.028;2023-11-21T08:38:57;14.40;85.00
913;DHT22;443;51.448;7.028;2023-11-21T08:41:25;14.40;84.70
913;DHT22;443;51.448;7.028;2023-11-21T08:43:53;14.40;85.10
913;DHT22;443;51.448;7.028;2023-11-21T08:46:20;14.40;85.20
913;DHT22;443;51.448;7.028;2023-11-21T08:48:48;14.40;84.90
913;DHT22;443;51.448;7.028;2023-11-21T08:51:18;14.40;85.30
913;DHT22;443;51.448;7.028;2023-11-21T08:53:44;14.40;85.20
913;DHT22;443;51.448;7.028;2023-11-21T08:56:12;14.40;85.50
913;DHT22;443;51.448;7.028;2023-11-21T08:58:41;14.40;85.00
913;DHT22;443;51.448;7.028;2023-11-21T09:01:08;14.40;85.00
913;DHT22;443;51.448;7.028;2023-11-21T09:03:35;14.40;85.10
913;DHT22;443;51.448;7.028;2023-11-21T09:06:02;14.40;85.30
913;DHT22;443;51.448;7.028;2023-11-21T09:08:29;14.40;85.20
913;DHT22;443;51.448;7.028;2023-11-21T09:10:56;14.40;85.10
913;DHT22;443;51.448;7.028;2023-11-21T09:13:22;14.40;85.00
913;DHT22;443;51.448;7.028;2023-11-21T09:15:52;14.40;84.80
913;DHT22;443;51.448;7.028;2023-11-21T09:18:18;14.40;84.70
913;DHT22;443;51.448;7.028;2023-11-21T09:20:45;14.40;84.70
913;DHT22;443;51.448;7.028;2023-11-21T09:23:12;14.50;85.00
913;DHT22;443;51.448;7.028;2023-11-21T09:25:39;14.50;85.10
913;DHT22;443;51.448;7.028;2023-11-21T09:28:06;14.50;84.90
913;DHT22;443;51.448;7.028;2023-11-21T09:30:34;14.50;84.40
913;DHT22;443;51.448;7.028;2023-11-21T09:33:02;14.50;84.90
913;DHT22;443;51.448;7.028;2023-11-21T09:35:30;14.50;84.50
913;DHT22;443;51.448;7.028;2023-11-21T09:37:57;14.50;85.00
913;DHT22;443;51.448;7.028;2023-11-21T09:40:24;14.60;85.40
913;DHT22;443;51.448;7.028;2023-11-21T09:42:55;14.50;84.50
913;DHT22;443;51.448;7.028;2023-11-21T09:45:25;14.50;84.70
913;DHT22;443;51.448;7.028;2023-11-21T09:47:53;14.50;85.00
913;DHT22;443;51.448;7.028;2023-11-21T09:50:23;14.50;84.60
913;DHT22;443;51.448;7.028;2023-11-21T09:52:55;14.50;84.70
913;DHT22;443;51.448;7.028;2023-11-21T09:55:27;14.60;85.00
913;DHT22;443;51.448;7.028;2023-11-21T09:57:56;14.60;84.80
913;DHT22;443;51.448;7.028;2023-11-21T10:00:23;14.60;84.80
913;DHT22;443;51.448;7.028;2023-11-21T10:02:51;14.50;84.30
913;DHT22;443;51.448;7.028;2023-11-21T10:05:18;14.60;84.80
913;DHT22;443;51.448;7.028;2023-11-21T10:07:49;14.60;85.10
913;DHT22;443;51.448;7.028;2023-11-21T10:10:19;14.60;84.80
913;DHT22;443;51.448;7.028;2023-11-21T10:12:49;14.60;84.90
913;DHT22;443;51.448;7.028;2023-11-21T10:15:20;14.70;84.70
913;DHT22;443;51.448;7.028;2023-11-21T10:17:48;14.70;84.20
913;DHT22;443;51.448;7.028;2023-11-21T10:20:16;14.70;84.60
913;DHT22;443;51.448;7.028;2023-11-21T10:22:43;14.60;84.20
913;DHT22;443;51.448;7.028;2023-11-21T10:25:12;14.60;84.50
913;DHT22;443;51.448;7.028;2023-11-21T10:27:40;14.70;84.40
913;DHT22;443;51.448;7.028;2023-11-21T10:30:09;14.70;84.70
913;DHT22;443;51.448;7.028;2023-11-21T10:32:37;14.70;84.00
913;DHT22;443;51.448;7.028;2023-11-21T10:35:06;14.70;83.80
913;DHT22;443;51.448;7.028;2023-11-21T10:37:35;14.60;83.70
913;DHT22;443;51.448;7.028;2023-11-21T10:40:05;14.70;84.20
913;DHT22;443;51.448;7.028;2023-11-21T10:42:34;14.70;84.70
913;DHT22;443;51.448;7.028;2023-11-21T10:45:00;14.70;84.00
913;DHT22;443;51.448;7.028;2023-11-21T10:47:28;14.70;83.80
913;DHT22;443;51.448;7.028;2023-11-21T10:49:55;14.70;84.10
913;DHT22;443;51.448;7.028;2023-11-21T10:52:27;14.70;84.10
913;DHT22;443;51.448;7.028;2023-11-21T10:54:54;14.70;84.40
913;DHT22;443;51.448;7.028;2023-11-21T10:57:20;14.70;83.80
913;DHT22;443;51.448;7.028;2023-11-21T10:59:50;14.70;83.90
913;DHT22;443;51.448;7.028;2023-11-21T11:02:23;14.70;84.10
913;DHT22;443;51.448;7.028;2023-11-21T11:04:53;14.80;84.00
913;DHT22;443;51.448;7.028;2023-11-21T11:07:24;14.80;84.00
913;DHT22;443;51.448;7.028;2023-11-21T11:09:52;14.90;84.40
913;DHT22;443;51.448;7.028;2023-11-21T11:12:18;14.80;83.70
913;DHT22;443;51.448;7.028;2023-11-21T11:14:45;14.80;83.90
913;DHT22;443;51.448;7.028;2023-11-21T11:17:14;14.80;83.80
913;DHT22;443;51.448;7.028;2023-11-21T11:19:41;14.80;83.90
913;DHT22;443;51.448;7.028;2023-11-21T11:22:20;14.80;83.90
913;DHT22;443;51.448;7.028;2023-11-21T11:25:07;14.80;84.30
913;DHT22;443;51.448;7.028;2023-11-21T11:27:47;14.90;84.00
913;DHT22;443;51.448;7.028;2023-11-21T11:30:25;14.90;84.00
913;DHT22;443;51.448;7.028;2023-11-21T11:33:00;14.90;83.50
913;DHT22;443;51.448;7.028;2023-11-21T11:35:41;14.90;83.90
913;DHT22;443;51.448;7.028;2023-11-21T11:38:09;14.90;83.70
913;DHT22;443;51.448;7.028;2023-11-21T11:40:40;14.90;83.40
913;DHT22;443;51.448;7.028;2023-11-21T11:43:07;14.90;83.90
913;DHT22;443;51.448;7.028;2023-11-21T11:45:35;14.90;83.40
913;DHT22;443;51.448;7.028;2023-11-21T11:48:08;14.90;84.30
913;DHT22;443;51.448;7.028;2023-11-21T11:50:42;14.90;83.60
913;DHT22;443;51.448;7.028;2023-11-21T11:53:33;14.80;83.20
913;DHT22;443;51.448;7.028;2023-11-21T11:56:20;14.90;83.90
913;DHT22;443;51.448;7.028;2023-11-21T11:58:48;14.90;83.40
913;DHT22;443;51.448;7.028;2023-11-21T12:01:16;14.90;83.60
913;DHT22;443;51.448;7.028;2023-11-21T12:04:24;14.90;83.90
913;DHT22;443;51.448;7.028;2023-11-21T12:06:56;14.90;84.00
913;DHT22;443;51.448;7.028;2023-11-21T12:09:25;14.90;83.20
913;DHT22;443;51.448;7.028;2023-11-21T12:11:53;14.90;83.80
913;DHT22;443;51.448;7.028;2023-11-21T12:14:21;14.90;83.40
913;DHT22;443;51.448;7.028;2023-11-21T12:16:48;14.90;83.60
913;DHT22;443;51.448;7.028;2023-11-21T12:19:16;14.90;83.80
913;DHT22;443;51.448;7.028;2023-11-21T12:21:43;14.90;83.80
913;DHT22;443;51.448;7.028;2023-11-21T12:24:10;15.00;84.00
913;DHT22;443;51.448;7.028;2023-11-21T12:26:39;15.00;84.10
913;DHT22;443;51.448;7.028;2023-11-21T12:29:05;14.90;83.60
913;DHT22;443;51.448;7.028;2023-11-21T12:31:33;14.90;83.70
913;DHT22;443;51.448;7.028;2023-11-21T12:34:00;14.90;83.80
913;DHT22;443;51.448;7.028;2023-11-21T12:36:29;14.90;83.80
913;DHT22;443;51.448;7.028;2023-11-21T12:38:56;14.90;83.40
913;DHT22;443;51.448;7.028;2023-11-21T12:41:22;14.90;83.90
913;DHT22;443;51.448;7.028;2023-11-21T12:43:49;14.90;83.60
913;DHT22;443;51.448;7.028;2023-11-21T12:46:16;14.90;83.60
913;DHT22;443;51.448;7.028;2023-11-21T12:48:44;14.90;83.60
913;DHT22;443;51.448;7.028;2023-11-21T12:51:12;14.90;83.60
913;DHT22;443;51.448;7.028;2023-11-21T12:53:42;14.90;83.60
913;DHT22;443;51.448;7.028;2023-11-21T12:56:10;15.00;84.10
913;DHT22;443;51.448;7.028;2023-11-21T12:58:38;14.90;83.80
913;DHT22;443;51.448;7.028;2023-11-21T13:01:06;14.90;83.80
913;DHT22;443;51.448;7.028;2023-11-21T13:03:37;14.90;83.80
913;DHT22;443;51.448;7.028;2023-11-21T13:06:06;14.90;83.70
913;DHT22;443;51.448;7.028;2023-11-21T13:08:34;15.00;84.20
913;DHT22;443;51.448;7.028;2023-11-21T13:11:02;15.00;84.10
913;DHT22;443;51.448;7.028;2023-11-21T13:13:31;14.90;83.60
913;DHT22;443;51.448;7.028;2023-11-21T13:16:00;14.90;83.90
913;DHT22;443;51.448;7.028;2023-11-21T13:18:29;14.90;84.00
913;DHT22;443;51.448;7.028;2023-11-21T13:20:58;14.90;83.40
913;DHT22;443;51.448;7.028;2023-11-21T13:23:25;14.90;84.00
913;DHT22;443;51.448;7.028;2023-11-21T13:25:52;14.90;83.90
913;DHT22;443;51.448;7.028;2023-11-21T13:28:21;14.80;83.50
913;DHT22;443;51.448;7.028;2023-11-21T13:30:49;14.80;84.10
913;DHT22;443;51.448;7.028;2023-11-21T13:33:18;14.90;84.20
913;DHT22;443;51.448;7.028;2023-11-21T13:35:47;14.90;83.80
913;DHT22;443;51.448;7.028;2023-11-21T13:38:17;14.90;83.90
913;DHT22;443;51.448;7.028;2023-11-21T13:40:49;14.90;84.10
913;DHT22;443;51.448;7.028;2023-11-21T13:43:21;14.90;83.90
913;DHT22;443;51.448;7.028;2023-11-21T13:45:50;14.90;84.20
913;DHT22;443;51.448;7.028;2023-11-21T13:48:21;14.90;84.50
913;DHT22;443;51.448;7.028;2023-11-21T13:50:54;14.80;84.40
913;DHT22;443;51.448;7.028;2023-11-21T13:53:24;14.90;84.60
913;DHT22;443;51.448;7.028;2023-11-21T13:55:51;14.90;84.10
913;DHT22;443;51.448;7.028;2023-11-21T13:58:21;14.90;84.10
913;DHT22;443;51.448;7.028;2023-11-21T14:00:51;14.80;83.90
913;DHT22;443;51.448;7.028;2023-11-21T14:03:22;14.90;84.50
913;DHT22;443;51.448;7.028;2023-11-21T14:05:58;14.90;84.30
913;DHT22;443;51.448;7.028;2023-11-21T14:08:26;14.90;83.90
913;DHT22;443;51.448;7.028;2023-11-21T14:10:54;14.90;84.20
913;DHT22;443;51.448;7.028;2023-11-21T14:13:24;14.90;84.10
913;DHT22;443;51.448;7.028;2023-11-21T14:15:51;15.00;84.10
913;DHT22;443;51.448;7.028;2023-11-21T14:18:23;14.90;83.70
913;DHT22;443;51.448;7.028;2023-11-21T14:20:58;14.90;84.10
913;DHT22;443;51.448;7.028;2023-11-21T14:23:25;14.90;84.00
913;DHT22;443;51.448;7.028;2023-11-21T14:25:52;14.80;83.40
913;DHT22;443;51.448;7.028;2023-11-21T14:28:18;14.90;84.10
913;DHT22;443;51.448;7.028;2023-11-21T14:30:47;14.90;84.00
913;DHT22;443;51.448;7.028;2023-11-21T14:33:13;14.90;84.40
913;DHT22;443;51.448;7.028;2023-11-21T14:35:42;14.90;83.90
913;DHT22;443;51.448;7.028;2023-11-21T14:38:08;15.00;84.10
913;DHT22;443;51.448;7.028;2023-11-21T14:40:36;15.00;83.80
913;DHT22;443;51.448;7.028;2023-11-21T14:43:03;15.00;83.70
913;DHT22;443;51.448;7.028;2023-11-21T14:45:31;15.00;83.70
913;DHT22;443;51.448;7.028;2023-11-21T14:47:59;14.90;83.30
913;DHT22;443;51.448;7.028;2023-11-21T14:50:33;14.90;83.90
913;DHT22;443;51.448;7.028;2023-11-21T14:53:15;14.90;83.60
913;DHT22;443;51.448;7.028;2023-11-21T14:55:42;14.90;83.70
913;DHT22;443;51.448;7.028;2023-11-21T14:58:22;14.80;83.30
913;DHT22;443;51.448;7.028;2023-11-21T15:00:53;14.80;83.30
913;DHT22;443;51.448;7.028;2023-11-21T15:03:25;14.80;83.50
913;DHT22;443;51.448;7.028;2023-11-21T15:06:09;14.80;84.00
913;DHT22;443;51.448;7.028;2023-11-21T15:08:53;14.80;83.80
913;DHT22;443;51.448;7.028;2023-11-21T15:11:23;14.90;84.40
913;DHT22;443;51.448;7.028;2023-11-21T15:13:56;14.90;83.00
913;DHT22;443;51.448;7.028;2023-11-21T15:16:23;14.80;83.10
913;DHT22;443;51.448;7.028;2023-11-21T15:18:52;14.80;83.60
913;DHT22;443;51.448;7.028;2023-11-21T15:21:20;14.70;83.30
913;DHT22;443;51.448;7.028;2023-11-21T15:23:47;14.80;84.20
913;DHT22;443;51.448;7.028;2023-11-21T15:26:14;14.90;84.20
913;DHT22;443;51.448;7.028;2023-11-21T15:28:41;14.90;84.20
913;DHT22;443;51.448;7.028;2023-11-21T15:31:07;14.90;83.70
913;DHT22;443;51.448;7.028;2023-11-21T15:33:34;14.80;82.90
913;DHT22;443;51.448;7.028;2023-11-21T15:36:04;14.90;84.20
913;DHT22;443;51.448;7.028;2023-11-21T15:38:35;14.80;83.50
913;DHT22;443;51.448;7.028;2023-11-21T15:41:02;14.80;84.10
913;DHT22;443;51.448;7.028;2023-11-21T15:43:30;14.80;82.70
913;DHT22;443;51.448;7.028;2023-11-21T15:45:57;14.80;83.80
913;DHT22;443;51.448;7.028;2023-11-21T15:48:27;14.70;82.80
913;DHT22;443;51.448;7.028;2023-11-21T15:50:56;14.80;84.00
913;DHT22;443;51.448;7.028;2023-11-21T15:53:24;14.70;83.20
913;DHT22;443;51.448;7.028;2023-11-21T15:55:51;14.70;83.60
913;DHT22;443;51.448;7.028;2023-11-21T15:58:18;14.70;84.40
913;DHT22;443;51.448;7.028;2023-11-21T16:00:44;14.60;83.30
913;DHT22;443;51.448;7.028;2023-11-21T16:03:11;14.80;84.20
913;DHT22;443;51.448;7.028;2023-11-21T16:05:40;14.70;84.10
913;DHT22;443;51.448;7.028;2023-11-21T16:08:06;14.70;84.10
913;DHT22;443;51.448;7.028;2023-11-21T16:10:34;14.80;84.20
913;DHT22;443;51.448;7.028;2023-11-21T16:13:02;14.70;82.90
913;DHT22;443;51.448;7.028;2023-11-21T16:15:29;14.80;83.90
913;DHT22;443;51.448;7.028;2023-11-21T16:17:56;14.80;83.90
913;DHT22;443;51.448;7.028;2023-11-21T16:20:23;14.70;83.50
913;DHT22;443;51.448;7.028;2023-11-21T16:22:51;14.70;83.80
913;DHT22;443;51.448;7.028;2023-11-21T16:25:19;14.70;83.70
913;DHT22;443;51.448;7.028;2023-11-21T16:27:47;14.70;83.20
913;DHT22;443;51.448;7.028;2023-11-21T16:30:14;14.60;83.80
913;DHT22;443;51.448;7.028;2023-11-21T16:32:43;14.70;84.10
913;DHT22;443;51.448;7.028;2023-11-21T16:35:10;14.70;83.80
913;DHT22;443;51.448;7.028;2023-11-21T16:37:39;14.80;84.40
913;DHT22;443;51.448;7.028;2023-11-21T16:40:08;14.70;83.80